Latest Coastal Weather Observations for Cape Ferguson

IDQ60701

Issued at 6:21 pm EST Monday 27 March 2017 (issued every 10 minutes, with the page automatically refreshed every 10 minutes)

About coastal observations | Map of coastal stations | Coastal observations for QLD | Marine services | Other Formats
Station Details ID: 032182 Name: CAPE FERGUSON NTC AWS Lat: -19.28 Lon: 147.06 Height: 0.0 m
Data from the previous 72 hours. | See also: Recent months for locations in Queensland
Date/Time
EST
Temp
°C
Wind Pressure Rain since
9am
mm
Weather Cloud Vis
km
Sea
Height
m
Swell
Dir  Spd
kts
Gust
kts
hPa Trend Height
m
Period
s
Dir
27/06:00pm 30.3 WSW 18 24 1001.7 - - - - - - - - -
27/05:30pm 30.4 WSW 18 24 1001.6 - - - - - - - - -
27/05:00pm 30.4 WSW 18 22 1001.4 - - - - - - - - -
27/04:30pm 30.3 WSW 19 23 1001.0 - - - - - - - - -
27/04:00pm 30.4 WSW 19 24 1001.0 - - - - - - - - -
27/03:30pm 30.3 WSW 18 23 1001.3 - - - - - - - - -
27/03:00pm 30.3 WSW 19 23 1001.8 - - - - - - - - -
27/02:30pm 30.2 WSW 18 23 1002.1 - - - - - - - - -
27/02:00pm 30.1 WSW 17 21 1002.1 - - - - - - - - -
27/01:30pm 29.7 WSW 18 25 1002.3 - - - - - - - - -
27/01:00pm 29.6 WSW 18 23 1002.9 - - - - - - - - -
27/12:30pm 29.4 WSW 18 26 1003.6 - - - - - - - - -
27/12:00pm 29.4 WSW 19 25 1004.1 - - - - - - - - -
27/11:30am 29.7 WSW 16 21 1004.5 - - - - - - - - -
27/11:01am 29.8 SSW 15 27 1005.0 - - - - - - - - -
27/11:00am 29.8 SSW 14 23 1005.0 - - - - - - - - -
27/10:30am 29.0 WSW 16 20 1005.2 - - - - - - - - -
27/10:00am 28.3 WSW 14 19 1005.4 - - - - - - - - -
27/09:30am 28.1 WSW 17 22 1005.6 - - - - - - - - -
27/09:00am 27.8 WSW 17 21 1005.8 - - - - - - - - -
27/08:30am 27.4 WSW 14 19 1005.7 - - - - - - - - -
27/08:00am 27.6 WSW 15 19 1005.6 - - - - - - - - -
27/07:30am 27.6 WSW 16 20 1005.3 - - - - - - - - -
27/07:00am 27.6 WSW 14 19 1005.3 - - - - - - - - -
27/06:30am 27.7 W 13 16 1005.1 - - - - - - - - -
27/06:00am 28.0 W 13 17 1004.9 - - - - - - - - -
27/05:30am 28.0 WSW 11 15 1004.6 - - - - - - - - -
27/05:00am 28.2 SW 8 13 1004.7 - - - - - - - - -
27/04:30am 28.5 SW 12 19 1004.2 - - - - - - - - -
27/04:00am 29.1 SSW 13 16 1004.5 - - - - - - - - -
27/03:30am 29.3 SSW 13 17 1004.6 - - - - - - - - -
27/03:00am 28.3 WSW 9 13 1004.6 - - - - - - - - -
27/02:30am 28.9 SW 11 17 1004.7 - - - - - - - - -
27/02:00am 29.4 SSW 11 16 1005.3 - - - - - - - - -
27/01:30am 29.7 SSW 11 18 1005.9 - - - - - - - - -
27/01:00am 29.7 SSW 13 17 1006.0 - - - - - - - - -
27/12:30am 29.6 SW 13 16 1006.5 - - - - - - - - -
27/12:00am 29.6 SSW 11 16 1007.0 - - - - - - - - -
 
Date/Time
EST
Temp
°C
Wind Pressure Rain since
9am
mm
Weather Cloud Vis
km
Sea
Height
m
Swell
Dir  Spd
kts
Gust
kts
hPa Trend Height
m
Period
s
Dir
26/11:30pm 29.8 SSW 11 15 1007.2 - - - - - - - - -
26/11:00pm 29.8 SSW 11 15 1007.4 - - - - - - - - -
26/10:30pm 30.0 SSW 12 17 1007.2 - - - - - - - - -
26/10:00pm 30.1 SSW 12 16 1007.3 - - - - - - - - -
26/09:30pm 30.4 SSW 12 17 1007.3 - - - - - - - - -
26/09:00pm 30.4 SSW 12 16 1007.2 - - - - - - - - -
26/08:30pm 30.7 SSW 11 16 1007.1 - - - - - - - - -
26/08:00pm 30.5 SW 8 11 1006.4 - - - - - - - - -
26/07:30pm 30.7 SSW 9 13 1006.1 - - - - - - - - -
26/07:00pm 30.6 SSW 8 12 1006.0 - - - - - - - - -
26/06:30pm 31.0 SSW 11 15 1005.5 - - - - - - - - -
26/06:00pm 30.7 SSW 11 14 1005.2 - - - - - - - - -
26/05:30pm 30.9 SSW 13 16 1005.0 - - - - - - - - -
26/05:00pm 31.0 SSW 13 18 1004.7 - - - - - - - - -
26/04:30pm 30.9 S 14 18 1004.3 - - - - - - - - -
26/04:00pm 30.8 SSW 17 22 1004.1 - - - - - - - - -
26/03:30pm 30.9 S 13 17 1004.5 - - - - - - - - -
26/03:00pm 30.7 S 12 17 1004.6 - - - - - - - - -
26/02:30pm 30.5 S 14 17 1005.0 - - - - - - - - -
26/02:00pm 30.4 S 16 20 1005.2 - - - - - - - - -
26/01:30pm 30.1 S 12 17 1005.6 - - - - - - - - -
26/01:00pm 30.1 S 12 16 1006.0 - - - - - - - - -
26/12:30pm 29.6 S 15 19 1006.6 - - - - - - - - -
26/12:00pm 29.4 S 13 17 1007.6 - - - - - - - - -
26/11:30am 29.6 SSW 8 13 1008.0 - - - - - - - - -
26/11:00am 28.9 SSW 10 13 1008.4 - - - - - - - - -
26/10:30am 28.3 SW 5 9 1008.7 - - - - - - - - -
26/10:00am 27.5 WSW 4 6 1008.9 - - - - - - - - -
26/09:30am 27.1 SW 6 8 1009.0 - - - - - - - - -
26/09:00am 27.2 SSW 7 10 1009.0 - - - - - - - - -
26/08:30am 26.6 SW 6 9 1008.9 - - - - - - - - -
26/08:00am 26.3 SW 7 9 1008.8 - - - - - - - - -
26/07:30am 26.8 S 6 9 1008.5 - - - - - - - - -
26/07:00am 26.4 W 6 9 1008.2 - - - - - - - - -
26/06:30am 26.7 SW 6 10 1008.0 - - - - - - - - -
26/06:00am 26.5 SW 8 11 1007.5 - - - - - - - - -
26/05:30am 27.1 SSW 8 12 1007.3 - - - - - - - - -
26/05:00am 26.8 SW 7 9 1007.3 - - - - - - - - -
26/04:30am 26.9 SSW 11 14 1007.2 - - - - - - - - -
26/04:00am 27.3 S 13 16 1007.2 - - - - - - - - -
26/03:30am 27.5 S 12 16 1007.1 - - - - - - - - -
26/03:00am 27.9 S 9 12 1007.2 - - - - - - - - -
26/02:30am 27.8 SW 6 10 1007.2 - - - - - - - - -
26/02:00am 26.0 W 5 7 1007.4 - - - - - - - - -
26/01:30am 25.3 WNW 5 6 1007.5 - - - - - - - - -
26/01:00am 28.3 SSE 6 8 1007.8 - - - - - - - - -
26/12:30am 28.4 S 9 11 1008.4 - - - - - - - - -
26/12:00am 28.8 S 9 12 1008.8 - - - - - - - - -
 
Date/Time
EST
Temp
°C
Wind Pressure Rain since
9am
mm
Weather Cloud Vis
km
Sea
Height
m
Swell
Dir  Spd
kts
Gust
kts
hPa Trend Height
m
Period
s
Dir
25/11:30pm 28.9 SSE 9 11 1009.1 - - - - - - - - -
25/11:00pm 28.9 SE 11 12 1009.6 - - - - - - - - -
25/10:30pm 29.1 SSE 11 14 1009.7 - - - - - - - - -
25/10:00pm 28.6 SSW 5 9 1009.8 - - - - - - - - -
25/09:30pm 29.4 SE 10 12 1009.8 - - - - - - - - -
25/09:00pm 29.6 SE 10 11 1009.6 - - - - - - - - -
25/08:30pm 29.5 SSE 6 9 1009.1 - - - - - - - - -
25/08:00pm 29.1 SE 3 4 1008.9 - - - - - - - - -
25/07:30pm 29.2 E 4 6 1008.4 - - - - - - - - -
25/07:00pm 28.5 NE 1 2 1008.1 - - - - - - - - -
25/06:30pm 28.0 N 2 3 - - - - - - - - - -
25/06:00pm 27.9 NE 3 5 1007.6 - - - - - - - - -
25/05:30pm 27.3 W 5 7 1007.1 - - - - - - - - -
25/05:00pm 26.1 NW 5 10 1007.1 - - - - - - - - -
25/04:30pm 28.4 ESE 13 17 - - - - - - - - - -
25/04:00pm 29.4 E 7 8 1006.7 - - - - - - - - -
25/03:30pm 29.6 E 14 18 1006.7 - - - - - - - - -
25/03:00pm 29.4 E 12 15 1006.7 - - - - - - - - -
25/02:30pm 31.0 SE 8 11 1006.8 - - - - - - - - -
25/02:00pm 30.7 SSE 10 12 1007.0 - - - - - - - - -
25/01:30pm 30.4 SSE 10 13 1007.1 - - - - - - - - -
25/01:00pm 30.1 SSE 13 15 1007.5 - - - - - - - - -
25/12:30pm 29.9 SSE 12 18 1008.0 - - - - - - - - -
25/12:00pm 29.5 SSE 13 18 1008.5 - - - - - - - - -
25/11:30am 29.1 SSE 14 19 1009.1 - - - - - - - - -
25/11:00am 28.9 SSE 15 17 1009.6 - - - - - - - - -
25/10:30am 28.4 SSE 14 18 1009.8 - - - - - - - - -
25/10:00am 28.3 SSE 13 18 1010.2 - - - - - - - - -
25/09:30am 28.3 SSE 11 15 1010.3 - - - - - - - - -
25/09:00am 28.2 S 12 17 1010.0 - - - - - - - - -
25/08:30am 28.2 S 11 14 1009.6 - - - - - - - - -
25/08:00am 28.0 SSW 8 13 1009.4 - - - - - - - - -
25/07:30am 27.4 SW 6 8 1008.9 - - - - - - - - -
25/07:00am 27.1 W 8 9 1008.6 - - - - - - - - -
25/06:30am 27.1 WSW 6 9 1008.4 - - - - - - - - -
25/06:00am 27.4 SW 5 9 1008.3 - - - - - - - - -
25/05:30am 27.6 SSW 7 10 1008.2 - - - - - - - - -
25/05:00am 27.0 WSW 8 11 1007.8 - - - - - - - - -
25/04:30am 27.7 SSW 7 10 1007.6 - - - - - - - - -
25/04:00am 27.1 W 7 10 1007.5 - - - - - - - - -
25/03:30am 26.8 W 5 8 1007.7 - - - - - - - - -
25/03:00am 28.1 S 11 13 1007.9 - - - - - - - - -
25/02:30am 27.9 SSW 4 9 1008.2 - - - - - - - - -
25/02:00am 26.8 W 6 7 1008.4 - - - - - - - - -
25/01:30am 27.3 WSW 6 8 1008.6 - - - - - - - - -
25/01:00am 27.3 SW 3 5 1009.0 - - - - - - - - -
25/12:30am 27.1 W 4 7 1009.3 - - - - - - - - -
25/12:00am 27.1 WSW 4 7 1009.4 - - - - - - - - -
 
Date/Time
EST
Temp
°C
Wind Pressure Rain since
9am
mm
Weather Cloud Vis
km
Sea
Height
m
Swell
Dir  Spd
kts
Gust
kts
hPa Trend Height
m
Period
s
Dir
24/11:30pm 27.4 SSW 7 11 1009.8 - - - - - - - - -
24/11:00pm 28.0 S 6 9 1009.9 - - - - - - - - -
24/10:30pm 28.2 SSE 9 12 1009.7 - - - - - - - - -
24/10:00pm 28.5 SSE 11 15 1009.7 - - - - - - - - -
24/09:30pm 28.9 S 6 15 1009.8 - - - - - - - - -
24/09:00pm 28.1 SSW 5 7 1009.4 - - - - - - - - -
24/08:30pm 28.5 SW 6 8 1009.3 - - - - - - - - -
24/08:00pm 29.1 SE 9 11 1009.1 - - - - - - - - -
24/07:30pm 29.2 SE 11 13 1008.7 - - - - - - - - -
24/07:00pm 29.2 ESE 12 15 1008.4 - - - - - - - - -
24/06:30pm 29.3 ESE 14 17 1008.3 - - - - - - - - -

Other Formats:

Comma delimited format used in spreadsheet applications
http://www.bom.gov.au/fwo/IDQ60701/IDQ60701.94297.axf

JavaScript Object Notation format (JSON) in row-major order
http://www.bom.gov.au/fwo/IDQ60701/IDQ60701.94297.json